Time;durP1;ratioP1;P1;durP2;ratioP2;P2;SDS_P1;SDS_P2;PMS_P1;PMS_P2;Temp;Humidity;BMP_temperature;BMP_pressure;BME280_temperature;BME280_humidity;BME280_pressure;Samples;Min_cycle;Max_cycle;Signal;HPM_P1;HPM_P2
2021/10/31 00:03:24;;;;;;;52.23;26.67;;;8.60;99.90;;;;;;20839960;28;20888;-85
2021/10/31 00:13:25;;;;;;;58.67;25.90;;;8.60;99.90;;;;;;20860432;28;20040;-85
2021/10/31 00:23:26;;;;;;;47.70;23.43;;;8.80;99.90;;;;;;20856186;28;20055;-84
2021/10/31 00:33:27;;;;;;;52.38;24.80;;;8.90;99.90;;;;;;20891317;28;20055;-85
2021/10/31 00:43:28;;;;;;;51.20;24.37;;;8.90;99.90;;;;;;20923320;28;20021;-83
2021/10/31 00:53:29;;;;;;;49.93;25.97;;;8.80;99.90;;;;;;20959767;28;20081;-84
2021/10/31 01:03:30;;;;;;;52.40;26.27;;;8.80;99.90;;;;;;20987748;28;20039;-82
2021/10/31 01:13:44;;;;;;;49.55;27.08;;;8.80;99.90;;;;;;20919700;28;20037;-83
2021/10/31 01:24:03;;;;;;;55.65;28.13;;;8.80;99.90;;;;;;20920390;28;20032;-85
2021/10/31 01:34:29;;;;;;;52.10;27.73;;;8.80;99.90;;;;;;20974748;28;20045;-83
2021/10/31 01:44:49;;;;;;;60.63;30.13;;;8.90;99.90;;;;;;20928837;28;20068;-83
2021/10/31 01:54:55;;;;;;;70.70;30.17;;;8.80;99.90;;;;;;20902331;28;20036;-83
2021/10/31 02:04:57;;;;;;;62.60;28.95;;;8.90;99.90;;;;;;20837146;28;20045;-84
2021/10/31 02:14:59;;;;;;;50.03;26.13;;;9.00;99.90;;;;;;20825204;28;20489;-84
2021/10/31 02:25:03;;;;;;;44.13;23.55;;;9.00;99.90;;;;;;20915217;28;20033;-85
2021/10/31 02:35:08;;;;;;;45.50;24.23;;;9.00;99.90;;;;;;20839933;28;20386;-85
2021/10/31 02:45:11;;;;;;;49.55;27.02;;;9.00;99.90;;;;;;20854919;28;20029;-83
2021/10/31 02:55:30;;;;;;;49.70;25.77;;;9.10;99.90;;;;;;20823880;28;20160;-83
2021/10/31 03:05:31;;;;;;;57.13;27.80;;;9.10;99.90;;;;;;20818928;28;20041;-82
2021/10/31 03:15:32;;;;;;;59.97;29.87;;;9.10;99.90;;;;;;20878782;28;20033;-83
2021/10/31 03:25:33;;;;;;;54.17;26.53;;;9.20;99.90;;;;;;20853652;28;20110;-84
2021/10/31 03:35:34;;;;;;;49.07;24.93;;;9.20;99.90;;;;;;20855932;28;20086;-84
2021/10/31 03:45:35;;;;;;;42.03;23.60;;;9.30;99.90;;;;;;20899928;28;20029;-84
2021/10/31 03:55:36;;;;;;;52.73;27.77;;;9.10;99.90;;;;;;20859558;28;20047;-86
2021/10/31 04:05:37;;;;;;;57.40;26.70;;;9.10;99.90;;;;;;20818413;28;20124;-86
2021/10/31 04:15:40;;;;;;;;;;;9.10;99.90;;;;;;20830749;28;20091;-84
2021/10/31 04:25:41;;;;;;;56.78;28.00;;;9.10;99.90;;;;;;20829054;28;19913;-86
2021/10/31 04:35:42;;;;;;;48.53;26.27;;;9.10;99.90;;;;;;20827170;28;20041;-83
2021/10/31 04:45:44;;;;;;;68.40;28.43;;;9.10;99.90;;;;;;20827073;28;20061;-84
2021/10/31 04:55:46;;;;;;;63.42;28.90;;;9.00;99.90;;;;;;20885359;28;20555;-84
2021/10/31 05:05:47;;;;;;;56.75;28.15;;;9.10;99.90;;;;;;20906828;28;20036;-81
2021/10/31 05:15:48;;;;;;;64.43;29.37;;;9.00;99.90;;;;;;20860935;28;20068;-83
2021/10/31 05:25:49;;;;;;;64.57;28.37;;;9.00;99.90;;;;;;20819168;28;20493;-82
2021/10/31 05:35:51;;;;;;;67.83;29.00;;;9.00;99.90;;;;;;20818052;28;20649;-80
2021/10/31 05:45:52;;;;;;;60.47;28.35;;;9.00;99.90;;;;;;20905583;28;20024;-80
2021/10/31 05:55:53;;;;;;;62.00;29.10;;;8.80;99.90;;;;;;20900613;28;20070;-85
2021/10/31 06:05:54;;;;;;;65.23;28.23;;;8.80;99.90;;;;;;20951848;28;20029;-81
2021/10/31 06:15:54;;;;;;;58.53;26.90;;;8.80;99.90;;;;;;20983815;28;20354;-80
2021/10/31 06:25:55;;;;;;;60.50;28.23;;;8.80;99.90;;;;;;20944634;28;20031;-80
2021/10/31 06:35:56;;;;;;;58.73;28.67;;;8.90;99.90;;;;;;20963814;28;20059;-82
2021/10/31 06:45:57;;;;;;;60.60;28.30;;;9.10;99.90;;;;;;20907418;28;20029;-85
2021/10/31 06:55:59;;;;;;;53.43;25.97;;;9.20;99.90;;;;;;20904002;28;20123;-81
2021/10/31 07:06:01;;;;;;;50.60;24.60;;;9.50;99.90;;;;;;20858248;28;20029;-79
2021/10/31 07:16:02;;;;;;;41.88;22.77;;;9.70;99.90;;;;;;20876777;28;20041;-83
2021/10/31 07:26:03;;;;;;;47.93;24.70;;;9.70;99.90;;;;;;20968049;28;20029;-79
2021/10/31 07:36:04;;;;;;;38.87;21.77;;;9.90;99.90;;;;;;20960552;28;20044;-81
2021/10/31 07:46:05;;;;;;;44.27;22.07;;;10.10;99.90;;;;;;20931143;28;20092;-81
2021/10/31 07:56:07;;;;;;;39.70;21.40;;;9.90;99.90;;;;;;20961657;28;20067;-83
2021/10/31 08:06:08;;;;;;;39.22;21.58;;;10.30;99.90;;;;;;20909490;28;20064;-80
2021/10/31 08:16:09;;;;;;;33.58;19.73;;;10.70;99.90;;;;;;20853567;28;20040;-83
2021/10/31 08:26:10;;;;;;;33.77;19.30;;;10.70;99.90;;;;;;20898163;28;20076;-81
2021/10/31 08:36:12;;;;;;;32.27;19.47;;;11.40;99.90;;;;;;20896788;28;20032;-82
2021/10/31 08:46:17;;;;;;;35.03;19.45;;;12.10;99.90;;;;;;20869453;28;20091;-82
2021/10/31 08:56:18;;;;;;;28.15;17.25;;;11.60;99.90;;;;;;20873992;28;20502;-81
2021/10/31 09:06:20;;;;;;;;;;;12.70;99.90;;;;;;20878337;28;20105;-81
2021/10/31 09:16:21;;;;;;;23.98;15.43;;;13.40;99.90;;;;;;20872191;28;19909;-81
2021/10/31 09:26:23;;;;;;;24.47;15.60;;;14.40;99.90;;;;;;20869893;28;20025;-79
2021/10/31 09:36:24;;;;;;;21.97;13.57;;;13.90;99.90;;;;;;20824606;28;20064;-81
2021/10/31 09:46:26;;;;;;;20.90;14.05;;;14.70;99.90;;;;;;20835797;28;20296;-82
2021/10/31 09:56:28;;;;;;;18.73;11.30;;;17.10;99.90;;;;;;20867153;28;20079;-81
2021/10/31 10:06:31;;;;;;;16.02;11.50;;;18.00;99.90;;;;;;20845826;28;20048;-80
2021/10/31 10:16:32;;;;;;;16.50;10.48;;;17.30;99.90;;;;;;20838505;28;20029;-82
2021/10/31 10:26:39;;;;;;;13.73;9.47;;;18.00;99.90;;;;;;20836154;28;20094;-80
2021/10/31 10:36:45;;;;;;;13.98;8.65;;;18.90;99.90;;;;;;20854181;28;20032;-80
2021/10/31 10:46:50;;;;;;;14.25;7.93;;;18.50;99.90;;;;;;20855759;28;20450;-82
2021/10/31 10:57:02;;;;;;;11.32;6.82;;;18.10;99.90;;;;;;20843626;28;20032;-80
2021/10/31 11:07:05;;;;;;;12.45;8.02;;;18.20;99.90;;;;;;20866944;28;20063;-81
2021/10/31 11:17:06;;;;;;;10.35;6.85;;;18.60;99.90;;;;;;20879733;28;20044;-82
2021/10/31 11:27:11;;;;;;;11.45;8.07;;;19.30;99.90;;;;;;20870376;28;20045;-82
2021/10/31 11:37:16;;;;;;;9.75;6.68;;;19.80;99.90;;;;;;20861153;28;20600;-83
2021/10/31 11:47:26;;;;;;;6.20;4.65;;;19.00;99.90;;;;;;20863837;28;20614;-84
2021/10/31 11:57:28;;;;;;;5.22;3.40;;;20.60;99.90;;;;;;20848546;28;20040;-84
2021/10/31 12:07:44;;;;;;;4.47;3.35;;;19.50;99.90;;;;;;20865788;28;20032;-85
2021/10/31 12:18:06;;;;;;;4.53;3.10;;;21.10;99.90;;;;;;20844597;28;20037;-84
2021/10/31 12:28:07;;;;;;;7.75;2.53;;;21.90;99.90;;;;;;20869247;28;20021;-84
2021/10/31 12:38:17;;;;;;;3.87;2.83;;;21.50;99.90;;;;;;20836756;28;20040;-84
2021/10/31 12:48:45;;;;;;;4.80;2.90;;;21.80;99.90;;;;;;20863241;28;20044;-83
2021/10/31 12:58:46;;;;;;;4.53;2.58;;;22.10;99.90;;;;;;20856491;28;20037;-85
2021/10/31 13:08:56;;;;;;;3.77;2.50;;;21.50;99.90;;;;;;20871390;28;20047;-85
2021/10/31 13:19:02;;;;;;;4.72;1.92;;;20.30;99.90;;;;;;20868300;28;20033;-84
2021/10/31 13:29:04;;;;;;;5.30;2.53;;;19.70;99.90;;;;;;20871061;28;20029;-83
2021/10/31 13:39:18;;;;;;;6.50;2.42;;;20.40;99.90;;;;;;20869584;28;20040;-83
2021/10/31 13:49:21;;;;;;;4.35;2.78;;;21.70;99.90;;;;;;20847707;28;20072;-84
2021/10/31 13:59:24;;;;;;;2.95;2.50;;;22.00;99.90;;;;;;20871635;28;20044;-84
2021/10/31 14:09:26;;;;;;;3.80;2.95;;;22.00;99.90;;;;;;20860774;28;20110;-84
2021/10/31 14:19:27;;;;;;;4.05;2.90;;;21.70;99.90;;;;;;20866328;28;20538;-85
2021/10/31 14:29:28;;;;;;;6.70;3.50;;;21.80;99.90;;;;;;20894789;28;20458;-83
2021/10/31 14:39:37;;;;;;;3.42;2.47;;;21.80;99.90;;;;;;20863180;28;20104;-85
2021/10/31 14:49:37;;;;;;;4.63;2.80;;;21.80;99.90;;;;;;20867696;28;20470;-84
2021/10/31 14:59:58;;;;;;;3.03;2.50;;;21.00;99.90;;;;;;20882910;28;20419;-85
2021/10/31 15:10:02;;;;;;;6.28;3.22;;;21.00;99.90;;;;;;20869569;28;20028;-84
2021/10/31 15:20:05;;;;;;;8.52;3.88;;;20.00;99.90;;;;;;20887793;28;20540;-83
2021/10/31 15:30:06;;;;;;;14.55;8.38;;;19.50;99.90;;;;;;20869841;28;20144;-84
2021/10/31 15:40:08;;;;;;;23.85;15.90;;;18.80;99.90;;;;;;20848492;28;20450;-84
2021/10/31 15:50:09;;;;;;;17.52;13.20;;;17.40;99.90;;;;;;20857008;28;20091;-83
2021/10/31 16:00:10;;;;;;;7.03;4.57;;;17.30;99.90;;;;;;20874501;28;20029;-83
2021/10/31 16:10:11;;;;;;;6.50;4.63;;;16.20;99.90;;;;;;20854276;28;20022;-83
2021/10/31 16:20:13;;;;;;;3.87;3.07;;;15.10;99.90;;;;;;20857311;28;20044;-84
2021/10/31 16:30:15;;;;;;;7.65;4.43;;;14.00;99.90;;;;;;20833722;28;20211;-83
2021/10/31 16:40:16;;;;;;;;;;;13.80;99.90;;;;;;20835023;28;20039;-83
2021/10/31 16:50:19;;;;;;;6.32;4.03;;;13.80;99.90;;;;;;20855932;28;19999;-83
2021/10/31 17:00:21;;;;;;;7.28;5.22;;;13.50;99.90;;;;;;20871351;28;20100;-82
2021/10/31 17:10:26;;;;;;;8.57;4.80;;;12.60;99.90;;;;;;20842354;28;20044;-83
2021/10/31 17:20:32;;;;;;;6.68;4.43;;;12.40;99.90;;;;;;20840715;28;20032;-84
2021/10/31 17:30:33;;;;;;;7.97;4.27;;;12.80;99.90;;;;;;20826948;28;20064;-84
2021/10/31 17:40:34;;;;;;;6.07;4.00;;;12.70;99.90;;;;;;20859045;28;20566;-82
2021/10/31 17:50:36;;;;;;;7.77;5.07;;;12.40;99.90;;;;;;20865971;28;20037;-84
2021/10/31 18:00:39;;;;;;;;;;;12.20;99.90;;;;;;20836794;28;20151;-82
2021/10/31 18:10:40;;;;;;;8.70;4.78;;;12.40;99.90;;;;;;20855010;28;20550;-81
2021/10/31 18:20:42;;;;;;;7.32;5.28;;;12.40;99.90;;;;;;20841023;28;20033;-82
2021/10/31 18:30:43;;;;;;;7.07;3.88;;;12.40;99.90;;;;;;20864337;28;20071;-83
2021/10/31 18:40:44;;;;;;;5.90;3.90;;;12.10;99.90;;;;;;20833857;28;20149;-81
2021/10/31 18:50:45;;;;;;;7.00;3.80;;;11.90;99.90;;;;;;20830315;28;20044;-84
2021/10/31 19:00:46;;;;;;;7.23;4.00;;;12.00;99.90;;;;;;20846727;28;20021;-84
2021/10/31 19:10:47;;;;;;;13.30;7.70;;;12.10;99.90;;;;;;20856047;28;20029;-82
2021/10/31 19:20:50;;;;;;;10.37;6.53;;;12.10;99.90;;;;;;20864855;28;20098;-84
2021/10/31 19:30:57;;;;;;;6.97;4.68;;;12.10;99.90;;;;;;20852111;28;20049;-82
2021/10/31 19:41:09;;;;;;;12.68;6.10;;;12.10;99.90;;;;;;20881139;28;20025;-81
2021/10/31 19:51:10;;;;;;;8.52;3.97;;;12.00;99.90;;;;;;20899127;28;20021;-82
2021/10/31 20:01:11;;;;;;;10.27;4.67;;;11.90;99.90;;;;;;20899398;28;20024;-82
2021/10/31 20:11:13;;;;;;;6.20;3.80;;;11.70;99.90;;;;;;20898822;28;20052;-80
2021/10/31 20:21:14;;;;;;;6.85;4.18;;;11.60;99.90;;;;;;20894168;28;20128;-83
2021/10/31 20:31:17;;;;;;;7.43;3.80;;;11.70;99.90;;;;;;20895338;28;20033;-81
2021/10/31 20:41:18;;;;;;;7.53;5.20;;;11.60;99.90;;;;;;20883510;28;20037;-81
2021/10/31 20:51:21;;;;;;;9.73;5.07;;;11.50;99.90;;;;;;20884699;28;20118;-82
2021/10/31 21:01:23;;;;;;;6.70;4.22;;;10.90;99.90;;;;;;20922431;28;20108;-82
2021/10/31 21:11:25;;;;;;;8.35;6.03;;;10.80;99.90;;;;;;20882216;28;20498;-82
2021/10/31 21:21:27;;;;;;;11.95;3.60;;;10.90;99.90;;;;;;20881147;28;20049;-83
2021/10/31 21:31:28;;;;;;;14.13;6.57;;;10.90;99.90;;;;;;20916357;28;20753;-82
2021/10/31 21:41:35;;;;;;;8.05;5.43;;;10.90;99.90;;;;;;20878676;28;20036;-83
2021/10/31 21:51:37;;;;;;;9.52;3.90;;;10.80;99.90;;;;;;20921510;28;20124;-82
2021/10/31 22:01:39;;;;;;;9.57;4.10;;;10.80;99.90;;;;;;20922055;28;20136;-83
2021/10/31 22:11:44;;;;;;;;;;;11.00;99.90;;;;;;20923265;28;20033;-82
2021/10/31 22:21:45;;;;;;;9.18;4.20;;;11.10;99.90;;;;;;20915544;28;19928;-81
2021/10/31 22:31:47;;;;;;;8.93;4.20;;;11.10;99.90;;;;;;20902754;28;20057;-82
2021/10/31 22:41:48;;;;;;;5.90;4.25;;;10.90;99.90;;;;;;20927617;28;20042;-81
2021/10/31 22:51:50;;;;;;;17.20;5.47;;;11.00;99.90;;;;;;20912781;28;20531;-81
2021/10/31 23:01:52;;;;;;;10.30;4.45;;;11.00;99.90;;;;;;20901102;28;20156;-81
2021/10/31 23:11:55;;;;;;;12.15;6.40;;;11.00;99.90;;;;;;20922741;28;20032;-79
2021/10/31 23:21:58;;;;;;;7.93;4.13;;;10.90;99.90;;;;;;20909325;28;20105;-80
2021/10/31 23:31:59;;;;;;;13.20;6.57;;;10.90;99.90;;;;;;20923741;28;20418;-81
2021/10/31 23:42:00;;;;;;;5.60;3.65;;;11.00;99.90;;;;;;20934224;28;20033;-78
2021/10/31 23:52:01;;;;;;;8.23;5.30;;;10.90;99.90;;;;;;20888211;28;20101;-79
